Time;durP1;ratioP1;P1;durP2;ratioP2;P2;SDS_P1;SDS_P2;PMS_P1;PMS_P2;Temp;Humidity;BMP_temperature;BMP_pressure;BME280_temperature;BME280_humidity;BME280_pressure;Samples;Min_cycle;Max_cycle;Signal;HPM_P1;HPM_P2
2022/05/17 00:00:12;;;;;;;;;;;;;;;15.70;91.46;99101.50;5019684;28;103295;-62
2022/05/17 00:02:41;;;;;;;;;;;;;;;15.70;91.20;99105.97;5013704;28;103858;-62
2022/05/17 00:05:09;;;;;;;;;;;;;;;15.69;90.70;99104.31;5016638;28;103278;-62
2022/05/17 00:07:37;;;;;;;;;;;;;;;15.66;90.91;99100.91;4999993;28;103161;-62
2022/05/17 00:10:06;;;;;;;;;;;;;;;15.68;91.01;99110.59;5016548;28;103040;-62
2022/05/17 00:12:35;;;;;;;;;;;;;;;15.68;89.58;99102.63;5002896;28;104306;-62
2022/05/17 00:15:04;;;;;;;;;;;;;;;15.53;90.85;99104.78;5016747;28;103215;-62
2022/05/17 00:17:32;;;;;;;;;;;;;;;15.39;92.39;99108.59;5000472;28;103272;-62
2022/05/17 00:20:01;;;;;;;;;;;;;;;15.42;91.73;99108.34;5021728;28;102704;-62
2022/05/17 00:22:29;;;;;;;;;;;;;;;15.38;91.97;99112.22;5014706;28;103154;-62
2022/05/17 00:24:57;;;;;;;;;;;;;;;15.40;91.32;99109.44;5015971;28;103257;-62
2022/05/17 00:27:25;;;;;;;;;;;;;;;15.29;92.04;99117.50;5001731;28;103309;-62
2022/05/17 00:29:53;;;;;;;;;;;;;;;15.23;93.47;99112.69;5000409;28;102752;-62
2022/05/17 00:32:21;;;;;;;;;;;;;;;15.20;93.65;99107.63;5018697;28;103885;-62
2022/05/17 00:34:49;;;;;;;;;;;;;;;15.15;93.26;99107.19;5014634;28;103234;-62
2022/05/17 00:37:20;;;;;;;;;;;;;;;15.08;94.34;99110.34;5016851;28;103252;-62
2022/05/17 00:39:47;;;;;;;;;;;;;;;15.00;94.81;99111.97;5012969;28;102889;-62
2022/05/17 00:42:15;;;;;;;;;;;;;;;15.03;94.86;99117.03;5017566;28;102728;-62
2022/05/17 00:44:46;;;;;;;;;;;;;;;15.13;94.43;99109.13;5018073;28;103228;-62
2022/05/17 00:47:19;;;;;;;;;;;;;;;15.20;93.40;99108.47;5018617;28;103114;-62
2022/05/17 00:49:50;;;;;;;;;;;;;;;15.24;92.49;99109.88;5013371;28;102926;-62
2022/05/17 00:52:21;;;;;;;;;;;;;;;15.30;90.71;99108.56;5015883;28;104181;-62
2022/05/17 00:54:50;;;;;;;;;;;;;;;15.29;90.68;99110.38;5010800;28;103220;-62
2022/05/17 00:57:21;;;;;;;;;;;;;;;15.29;90.70;99107.69;5019917;28;103217;-62
2022/05/17 00:59:49;;;;;;;;;;;;;;;15.20;91.50;99102.31;5014654;28;102685;-62
2022/05/17 01:02:20;;;;;;;;;;;;;;;15.14;91.57;99109.00;4993071;28;102784;-62
2022/05/17 01:04:48;;;;;;;;;;;;;;;14.99;93.37;99102.28;4995920;28;103165;-62
2022/05/17 01:07:18;;;;;;;;;;;;;;;14.83;94.25;99099.22;5015309;28;103155;-62
2022/05/17 01:09:47;;;;;;;;;;;;;;;14.67;96.23;99098.81;5019207;28;102831;-62
2022/05/17 01:12:15;;;;;;;;;;;;;;;14.39;98.12;99098.44;4997642;28;102728;-62
2022/05/17 01:15:00;;;;;;;;;;;;;;;14.19;100.00;99093.84;5001864;28;103395;-62
2022/05/17 01:17:29;;;;;;;;;;;;;;;14.45;99.75;99102.41;5016317;28;103152;-62
2022/05/17 01:19:57;;;;;;;;;;;;;;;14.34;99.71;99097.13;5016996;28;102564;-62
2022/05/17 01:22:26;;;;;;;;;;;;;;;14.09;100.00;99092.88;5017697;28;104028;-62
2022/05/17 01:24:54;;;;;;;;;;;;;;;13.85;100.00;99102.84;4994906;28;102997;-62
2022/05/17 01:27:28;;;;;;;;;;;;;;;14.05;100.00;99096.78;5015909;28;103226;-62
2022/05/17 01:29:56;;;;;;;;;;;;;;;14.19;100.00;99098.31;4996852;28;102713;-62
2022/05/17 01:32:26;;;;;;;;;;;;;;;14.11;100.00;99098.94;5013929;28;102798;-62
2022/05/17 01:34:54;;;;;;;;;;;;;;;13.95;100.00;99095.81;5016629;28;103118;-62
2022/05/17 01:37:22;;;;;;;;;;;;;;;13.89;100.00;99091.81;5012477;28;103948;-62
2022/05/17 01:39:54;;;;;;;;;;;;;;;13.95;100.00;99095.81;5014666;28;102761;-61
2022/05/17 01:42:22;;;;;;;;;;;;;;;13.88;100.00;99094.63;5015594;28;102687;-62
2022/05/17 01:44:52;;;;;;;;;;;;;;;13.86;100.00;99093.91;4998444;28;103241;-62
2022/05/17 01:47:19;;;;;;;;;;;;;;;14.05;100.00;99101.25;5000719;28;103074;-62
2022/05/17 01:49:47;;;;;;;;;;;;;;;13.99;100.00;99102.56;5013339;28;102727;-61
2022/05/17 01:52:15;;;;;;;;;;;;;;;14.10;100.00;99099.91;5020531;28;103989;-62
2022/05/17 01:54:43;;;;;;;;;;;;;;;14.14;100.00;99098.72;5014196;28;103240;-61
2022/05/17 01:57:14;;;;;;;;;;;;;;;14.26;99.83;99107.50;5017646;28;103127;-62
2022/05/17 01:59:42;;;;;;;;;;;;;;;14.34;97.80;99103.25;5014015;28;102856;-62
2022/05/17 02:02:11;;;;;;;;;;;;;;;14.39;95.83;99111.72;5012334;28;103008;-61
2022/05/17 02:04:39;;;;;;;;;;;;;;;14.32;95.83;99102.53;5020225;28;103235;-62
2022/05/17 02:07:09;;;;;;;;;;;;;;;14.05;98.72;99098.59;5011576;28;103082;-62
2022/05/17 02:09:37;;;;;;;;;;;;;;;14.01;99.34;99105.94;4999195;28;103258;-62
2022/05/17 02:12:05;;;;;;;;;;;;;;;13.78;100.00;99099.81;5014701;28;102815;-62
2022/05/17 02:14:38;;;;;;;;;;;;;;;13.96;100.00;99097.50;5014382;28;103927;-62
2022/05/17 02:17:06;;;;;;;;;;;;;;;13.81;99.55;99104.88;4992876;28;103105;-62
2022/05/17 02:19:34;;;;;;;;;;;;;;;13.71;100.00;99103.91;4999208;28;103953;-62
2022/05/17 02:22:02;;;;;;;;;;;;;;;13.91;100.00;99105.00;5011746;28;102678;-62
2022/05/17 02:24:30;;;;;;;;;;;;;;;13.95;99.76;99106.44;5011066;28;103348;-62
2022/05/17 02:26:57;;;;;;;;;;;;;;;13.89;100.00;99105.09;5015101;28;103274;-62
2022/05/17 02:29:29;;;;;;;;;;;;;;;13.49;100.00;99105.72;5013889;28;102736;-62
2022/05/17 02:31:58;;;;;;;;;;;;;;;13.31;100.00;99102.66;5014416;28;102710;-61
2022/05/17 02:34:26;;;;;;;;;;;;;;;13.28;100.00;99114.38;4997750;28;104091;-61
2022/05/17 02:36:55;;;;;;;;;;;;;;;13.24;100.00;99112.06;5018199;28;103128;-62
2022/05/17 02:39:22;;;;;;;;;;;;;;;13.35;100.00;99118.25;5018487;28;102810;-62
2022/05/17 02:41:50;;;;;;;;;;;;;;;13.30;100.00;99109.78;5000292;28;103762;-61
2022/05/17 02:44:20;;;;;;;;;;;;;;;13.12;100.00;99113.84;4997941;28;103355;-61
2022/05/17 02:46:48;;;;;;;;;;;;;;;13.25;100.00;99113.75;5014800;28;103402;-62
2022/05/17 02:49:17;;;;;;;;;;;;;;;13.44;100.00;99121.16;5015821;28;102758;-62
2022/05/17 02:51:45;;;;;;;;;;;;;;;13.59;100.00;99118.16;5013941;28;102682;-62
2022/05/17 02:54:13;;;;;;;;;;;;;;;13.59;100.00;99115.50;5000356;28;104107;-62
2022/05/17 02:56:44;;;;;;;;;;;;;;;13.68;100.00;99113.94;4996422;28;104135;-58
2022/05/17 02:59:15;;;;;;;;;;;;;;;13.50;100.00;99126.00;5007528;28;102707;-58
2022/05/17 03:01:43;;;;;;;;;;;;;;;13.52;100.00;99130.22;5016264;28;102889;-58
2022/05/17 03:04:12;;;;;;;;;;;;;;;13.30;100.00;99132.84;5014278;27;103301;-57
2022/05/17 03:06:42;;;;;;;;;;;;;;;13.53;100.00;99126.59;5013214;27;103146;-58
2022/05/17 03:09:10;;;;;;;;;;;;;;;13.64;100.00;99136.41;5003819;27;102743;-58
2022/05/17 03:11:41;;;;;;;;;;;;;;;13.63;99.32;99132.88;5011244;28;102820;-58
2022/05/17 03:14:12;;;;;;;;;;;;;;;13.73;98.66;99138.31;5003466;27;103205;-58
2022/05/17 03:16:41;;;;;;;;;;;;;;;13.76;96.90;99143.38;4981702;28;103153;-58
2022/05/17 03:19:08;;;;;;;;;;;;;;;13.67;97.49;99149.44;4994524;28;102924;-58
2022/05/17 03:21:36;;;;;;;;;;;;;;;13.61;98.00;99144.59;4993438;28;103618;-58
2022/05/17 03:24:06;;;;;;;;;;;;;;;13.67;97.37;99150.25;4994876;28;105018;-57
2022/05/17 03:26:54;;;;;;;;;;;;;;;13.75;96.21;99155.81;4992243;28;103248;-58
2022/05/17 03:29:22;;;;;;;;;;;;;;;13.58;96.16;99150.13;4997652;28;102626;-58
2022/05/17 03:31:50;;;;;;;;;;;;;;;13.56;96.38;99152.06;4986528;28;103059;-58
2022/05/17 03:34:18;;;;;;;;;;;;;;;13.49;96.36;99158.81;4993905;28;103951;-57
2022/05/17 03:36:46;;;;;;;;;;;;;;;13.33;99.50;99149.34;4998884;28;103177;-57
2022/05/17 03:39:15;;;;;;;;;;;;;;;13.17;100.00;99154.13;4999196;28;102756;-53
2022/05/17 03:41:43;;;;;;;;;;;;;;;13.07;100.00;99153.16;4982906;28;103305;-56
2022/05/17 03:44:11;;;;;;;;;;;;;;;13.08;100.00;99154.81;4986170;28;104314;-58
2022/05/17 03:46:39;;;;;;;;;;;;;;;13.27;100.00;99167.56;4984155;28;102988;-58
2022/05/17 03:49:10;;;;;;;;;;;;;;;13.42;100.00;99165.56;4981816;28;103176;-57
2022/05/17 03:51:37;;;;;;;;;;;;;;;13.51;97.95;99170.13;5001097;28;102871;-58
2022/05/17 03:54:05;;;;;;;;;;;;;;;13.52;95.75;99171.84;5000075;28;104645;-58
2022/05/17 03:56:34;;;;;;;;;;;;;;;13.54;95.44;99169.91;4997862;28;103148;-58
2022/05/17 03:59:02;;;;;;;;;;;;;;;13.51;96.01;99170.13;4983270;28;103052;-57
2022/05/17 04:01:30;;;;;;;;;;;;;;;13.44;96.92;99169.78;4999440;28;104896;-58
2022/05/17 04:03:58;;;;;;;;;;;;;;;13.41;98.81;99174.47;4997388;28;103279;-59
2022/05/17 04:06:26;;;;;;;;;;;;;;;13.54;98.04;99180.53;4996655;28;103164;-58
2022/05/17 04:08:53;;;;;;;;;;;;;;;13.60;96.53;99180.91;5001345;28;102592;-57
2022/05/17 04:11:21;;;;;;;;;;;;;;;13.57;97.50;99180.28;4990304;28;102834;-57
2022/05/17 04:13:50;;;;;;;;;;;;;;;13.54;97.96;99185.84;4999892;28;104106;-57
2022/05/17 04:16:19;;;;;;;;;;;;;;;13.60;98.24;99190.69;4989086;28;103135;-57
2022/05/17 04:18:48;;;;;;;;;;;;;;;13.51;99.78;99184.25;4983638;28;102711;-57
2022/05/17 04:21:15;;;;;;;;;;;;;;;13.47;100.00;99189.94;4990916;28;103209;-57
2022/05/17 04:23:43;;;;;;;;;;;;;;;13.63;100.00;99190.44;4979049;28;103047;-57
2022/05/17 04:26:13;;;;;;;;;;;;;;;13.74;98.54;99203.75;4990974;28;103194;-57
2022/05/17 04:28:41;;;;;;;;;;;;;;;13.79;96.28;99209.53;4989734;28;102765;-57
2022/05/17 04:31:10;;;;;;;;;;;;;;;13.70;98.04;99204.94;4986718;28;102715;-57
2022/05/17 04:33:38;;;;;;;;;;;;;;;13.70;100.00;99205.78;4981252;28;103200;-57
2022/05/17 04:36:06;;;;;;;;;;;;;;;13.66;100.00;99211.44;4963826;28;103852;-57
2022/05/17 04:38:34;;;;;;;;;;;;;;;13.66;100.00;99216.75;4981774;28;102766;-58
2022/05/17 04:41:02;;;;;;;;;;;;;;;13.84;100.00;99215.31;4989096;28;102701;-57
2022/05/17 04:43:31;;;;;;;;;;;;;;;13.96;100.00;99214.38;4979346;28;103238;-57
2022/05/17 04:45:58;;;;;;;;;;;;;;;13.98;99.25;99212.44;4989071;28;103189;-57
2022/05/17 04:48:29;;;;;;;;;;;;;;;14.10;100.00;99216.81;4990940;28;102771;-58
2022/05/17 04:50:56;;;;;;;;;;;;;;;14.24;98.34;99218.38;4980081;28;102952;-58
2022/05/17 04:53:28;;;;;;;;;;;;;;;14.30;97.70;99221.41;4986791;28;103500;-58
2022/05/17 04:55:55;;;;;;;;;;;;;;;14.34;99.71;99222.03;5006813;27;103150;-58
2022/05/17 04:58:26;;;;;;;;;;;;;;;14.44;98.48;99215.00;5010307;28;102773;-57
2022/05/17 05:00:54;;;;;;;;;;;;;;;14.52;97.67;99213.44;5013137;28;102972;-58
2022/05/17 05:03:21;;;;;;;;;;;;;;;14.61;97.86;99227.81;5002844;27;104080;-57
2022/05/17 05:05:53;;;;;;;;;;;;;;;14.73;97.18;99225.97;5010807;28;104434;-58
2022/05/17 05:08:22;;;;;;;;;;;;;;;14.76;98.48;99218.59;4994269;28;103252;-58
2022/05/17 05:10:54;;;;;;;;;;;;;;;14.87;97.22;99223.88;5012303;28;103004;-57
2022/05/17 05:13:23;;;;;;;;;;;;;;;14.98;97.45;99223.84;5008036;28;103047;-57
2022/05/17 05:15:54;;;;;;;;;;;;;;;15.13;96.28;99216.41;5011549;27;103616;-57
2022/05/17 05:18:24;;;;;;;;;;;;;;;15.23;95.14;99222.66;4996048;28;103040;-58
2022/05/17 05:21:02;;;;;;;;;;;;;;;15.31;95.46;99214.88;5008370;28;102955;-57
2022/05/17 05:23:30;;;;;;;;;;;;;;;15.46;94.51;99226.06;5002563;28;103199;-58
2022/05/17 05:25:58;;;;;;;;;;;;;;;15.52;93.73;99221.09;5006505;28;103148;-58
2022/05/17 05:28:28;;;;;;;;;;;;;;;15.68;93.55;99225.13;5003321;27;102675;-57
2022/05/17 05:30:55;;;;;;;;;;;;;;;15.76;92.69;99218.19;4978190;28;104261;-58
2022/05/17 05:33:23;;;;;;;;;;;;;;;15.87;92.28;99219.91;5000432;28;103270;-60
2022/05/17 05:35:52;;;;;;;;;;;;;;;16.02;91.34;99229.28;5000674;28;103129;-57
2022/05/17 05:38:22;;;;;;;;;;;;;;;16.11;90.59;99228.50;5002722;28;102845;-58
2022/05/17 05:40:55;;;;;;;;;;;;;;;16.18;90.87;99226.97;5000832;28;102730;-58
2022/05/17 05:43:25;;;;;;;;;;;;;;;16.31;90.45;99219.56;4995775;28;103227;-57
2022/05/17 05:45:53;;;;;;;;;;;;;;;16.42;90.10;99222.13;5001310;28;103147;-58
2022/05/17 05:48:21;;;;;;;;;;;;;;;16.47;89.67;99227.94;5007716;27;104757;-58
2022/05/17 05:50:48;;;;;;;;;;;;;;;16.61;89.37;99226.75;5009809;27;102967;-57
2022/05/17 05:53:16;;;;;;;;;;;;;;;16.80;88.75;99219.63;4969048;28;104282;-58
2022/05/17 05:55:46;;;;;;;;;;;;;;;16.87;87.70;99224.44;5003916;28;103191;-58
2022/05/17 05:58:14;;;;;;;;;;;;;;;16.89;88.02;99220.63;4984419;28;102723;-58
2022/05/17 06:00:42;;;;;;;;;;;;;;;17.00;86.32;99230.34;4997065;28;103058;-57
2022/05/17 06:03:10;;;;;;;;;;;;;;;17.09;86.32;99229.50;4991699;28;104113;-57
2022/05/17 06:05:38;;;;;;;;;;;;;;;17.16;86.34;99233.28;4988913;28;103194;-58
2022/05/17 06:08:06;;;;;;;;;;;;;;;17.01;85.90;99234.69;5001743;28;102588;-57
2022/05/17 06:10:34;;;;;;;;;;;;;;;17.28;86.49;99240.19;5008320;28;102633;-58
2022/05/17 06:13:03;;;;;;;;;;;;;;;17.34;86.45;99239.66;4987262;28;104169;-58
2022/05/17 06:15:31;;;;;;;;;;;;;;;17.52;84.82;99235.25;5000218;27;103775;-57
2022/05/17 06:18:02;;;;;;;;;;;;;;;17.55;84.93;99237.69;4985868;28;102901;-57
2022/05/17 06:20:30;;;;;;;;;;;;;;;17.83;84.82;99233.28;5005793;28;103036;-57
2022/05/17 06:22:58;;;;;;;;;;;;;;;18.05;83.46;99232.94;5011701;28;103225;-58
2022/05/17 06:25:26;;;;;;;;;;;;;;;18.19;82.68;99229.00;4990154;28;102942;-58
2022/05/17 06:27:54;;;;;;;;;;;;;;;18.11;82.84;99231.53;5012774;28;102794;-58
2022/05/17 06:30:23;;;;;;;;;;;;;;;18.07;83.17;99235.50;5008944;28;102695;-57
2022/05/17 06:32:52;;;;;;;;;;;;;;;18.22;82.42;99234.03;4990312;28;103316;-57
2022/05/17 06:35:20;;;;;;;;;;;;;;;18.38;81.26;99231.59;5014698;28;103501;-58
2022/05/17 06:37:49;;;;;;;;;;;;;;;18.55;80.77;99233.53;5009007;28;102597;-59
2022/05/17 06:40:17;;;;;;;;;;;;;;;18.54;81.30;99237.19;4987400;28;103710;-58
2022/05/17 06:42:45;;;;;;;;;;;;;;;18.55;80.48;99230.84;5011868;28;103291;-58
2022/05/17 06:45:14;;;;;;;;;;;;;;;18.83;79.97;99240.56;5011465;28;103354;-58
2022/05/17 06:47:43;;;;;;;;;;;;;;;18.90;79.43;99238.94;4998916;27;103162;-58
2022/05/17 06:50:11;;;;;;;;;;;;;;;19.04;78.21;99229.56;5003352;28;103873;-59
2022/05/17 06:52:39;;;;;;;;;;;;;;;18.97;79.05;99236.53;4985179;28;103264;-58
2022/05/17 06:55:07;;;;;;;;;;;;;;;19.18;78.88;99229.03;5001841;28;103190;-58
2022/05/17 06:57:35;;;;;;;;;;;;;;;19.52;76.97;99237.25;5002805;28;103125;-58
2022/05/17 07:00:05;;;;;;;;;;;;;;;19.53;76.81;99236.25;4982889;28;104023;-59
2022/05/17 07:02:33;;;;;;;;;;;;;;;19.73;76.79;99235.09;5004933;28;103295;-59
2022/05/17 07:05:03;;;;;;;;;;;;;;;19.69;75.40;99239.06;5009460;28;103138;-59
2022/05/17 07:07:36;;;;;;;;;;;;;;;19.61;75.34;99237.19;4977764;28;103297;-59
2022/05/17 07:13:12;;;;;;;;;;;;;;;20.12;73.82;99247.09;4998901;27;103292;-59
2022/05/17 07:15:40;;;;;;;;;;;;;;;20.07;73.32;99243.22;5003358;28;103141;-59
2022/05/17 07:18:09;;;;;;;;;;;;;;;20.40;74.35;99238.91;5001939;28;103249;-59
2022/05/17 07:20:43;;;;;;;;;;;;;;;20.11;73.60;99244.56;5010183;28;103862;-59
2022/05/17 07:23:12;;;;;;;;;;;;;;;20.26;74.27;99240.34;5008507;28;103238;-59
2022/05/17 07:25:41;;;;;;;;;;;;;;;20.81;71.94;99238.06;5010018;28;103053;-59
2022/05/17 07:28:12;;;;;;;;;;;;;;;20.91;71.28;99246.00;5013328;28;103309;-59
2022/05/17 07:30:42;;;;;;;;;;;;;;;21.45;70.13;99241.94;5016384;28;104018;-59
2022/05/17 07:34:36;;;;;;;6.55;5.95;;;;;;;21.97;67.02;99246.00;5126285;27;102949;-68
2022/05/17 07:37:06;;;;;;;8.73;5.97;;;;;;;22.22;65.94;99242.28;5109715;27;104305;-68
2022/05/17 07:39:37;;;;;;;7.63;5.80;;;;;;;22.13;66.76;99237.91;5106335;27;103930;-68
2022/05/17 07:42:06;;;;;;;6.97;5.20;;;;;;;22.94;64.24;99243.03;5105424;27;103345;-68
2022/05/17 07:44:37;;;;;;;7.38;5.80;;;;;;;22.78;62.73;99243.13;5101640;27;102867;-69
2022/05/17 07:47:06;;;;;;;6.68;5.28;;;;;;;23.43;62.17;99233.69;5106409;27;102744;-68
2022/05/17 07:49:38;;;;;;;6.03;4.93;;;;;;;23.78;60.23;99236.75;5103427;27;103987;-68
2022/05/17 07:52:07;;;;;;;5.17;4.60;;;;;;;23.50;60.07;99240.03;5072636;27;104158;-68
2022/05/17 07:54:37;;;;;;;5.43;4.40;;;;;;;24.10;56.74;99231.94;5103409;27;103276;-67
2022/05/17 07:57:06;;;;;;;4.63;3.88;;;;;;;24.68;58.75;99230.28;5099752;27;104207;-68
2022/05/17 07:59:34;;;;;;;8.35;4.95;;;;;;;24.24;57.88;99238.38;5061117;27;103661;-68
2022/05/17 08:02:03;;;;;;;4.60;3.30;;;;;;;24.50;56.12;99238.78;5021663;27;103668;-68
2022/05/17 08:04:33;;;;;;;6.27;3.40;;;;;;;24.84;52.70;99229.28;5029535;27;102980;-68
2022/05/17 08:07:02;;;;;;;6.07;3.30;;;;;;;25.12;52.97;99222.13;5029137;27;104001;-68
2022/05/17 08:09:35;;;;;;;5.78;3.20;;;;;;;24.53;51.20;99229.47;5029587;27;103146;-68
2022/05/17 08:12:04;;;;;;;3.42;2.80;;;;;;;25.84;51.23;99223.72;5018669;27;104452;-68
2022/05/17 08:14:32;;;;;;;3.92;2.80;;;;;;;25.87;51.73;99227.88;5020676;27;103009;-68
2022/05/17 08:17:00;;;;;;;5.13;3.47;;;;;;;24.92;51.23;99226.47;5023179;27;103493;-68
2022/05/17 08:19:28;;;;;;;3.90;3.22;;;;;;;24.94;52.52;99229.81;5027138;27;103874;-68
2022/05/17 08:21:56;;;;;;;5.80;3.40;;;;;;;25.73;53.25;99220.69;5025618;27;103220;-69
2022/05/17 08:24:26;;;;;;;5.60;3.60;;;;;;;26.38;51.05;99223.09;5037072;27;102997;-68
2022/05/17 08:29:39;;;;;;;4.10;3.50;;;;;;;27.18;49.10;99217.84;5039832;27;103264;-69
2022/05/17 08:34:53;;;;;;;4.55;3.17;;;;;;;27.47;45.95;99217.53;5045372;27;102712;-71
2022/05/17 08:37:21;;;;;;;4.47;3.03;;;;;;;26.38;47.82;99220.38;5044061;27;102790;-72
2022/05/17 08:39:50;;;;;;;5.15;3.03;;;;;;;26.79;45.34;99223.97;5044721;27;104284;-72
2022/05/17 08:42:25;;;;;;;4.57;2.93;;;;;;;26.07;46.67;99220.78;5043155;27;103246;-71
2022/05/17 08:45:02;;;;;;;3.80;2.50;;;;;;;26.46;47.49;99212.09;5026380;27;102947;-71
2022/05/17 08:47:40;;;;;;;4.47;3.25;;;;;;;26.10;49.35;99216.81;5004870;27;102905;-72
2022/05/17 08:50:31;;;;;;;4.60;2.97;;;;;;;25.40;48.25;99212.25;5025870;27;104105;-71
2022/05/17 08:52:59;;;;;;;3.85;2.97;;;;;;;26.44;47.20;99211.47;5009908;27;103276;-71
2022/05/17 08:55:31;;;;;;;5.10;3.03;;;;;;;25.30;48.94;99214.41;5029277;27;102852;-71
2022/05/17 08:58:04;;;;;;;5.72;3.00;;;;;;;25.26;48.75;99207.72;5028977;27;103673;-71
2022/05/17 09:00:36;;;;;;;7.15;3.05;;;;;;;25.63;48.86;99203.97;5023106;27;104034;-69
2022/05/17 09:03:17;;;;;;;5.90;3.20;;;;;;;25.01;49.57;99209.94;5030442;27;103176;-71
2022/05/17 09:05:53;;;;;;;5.10;3.03;;;;;;;25.16;48.92;99202.63;5020636;27;103913;-71
2022/05/17 09:08:29;;;;;;;3.47;2.50;;;;;;;25.86;50.08;99197.28;5010541;27;104495;-71
2022/05/17 09:11:05;;;;;;;4.63;2.70;;;;;;;26.35;49.03;99204.53;5005496;27;104348;-71
2022/05/17 09:13:47;;;;;;;4.50;2.40;;;;;;;27.35;49.15;99202.03;5026721;27;103247;-71
2022/05/17 09:16:37;;;;;;;5.07;3.13;;;;;;;26.95;44.32;99199.22;5024668;27;102777;-71
2022/05/17 09:19:06;;;;;;;4.60;2.80;;;;;;;27.84;45.10;99194.41;5032730;27;103831;-69
2022/05/17 09:21:35;;;;;;;5.40;3.67;;;;;;;26.16;46.89;99197.94;5009147;27;104201;-71
2022/05/17 09:24:07;;;;;;;4.27;3.10;;;;;;;26.69;46.38;99204.50;5027623;27;103216;-71
2022/05/17 09:26:38;;;;;;;5.97;3.60;;;;;;;26.30;45.02;99196.16;5022979;27;103317;-72
2022/05/17 09:29:14;;;;;;;4.35;3.17;;;;;;;26.92;47.73;99196.09;5031171;27;103954;-71
2022/05/17 09:31:51;;;;;;;3.43;2.80;;;;;;;28.29;44.49;99195.41;5023966;27;103345;-71
2022/05/17 09:34:30;;;;;;;4.60;2.83;;;;;;;27.97;43.82;99198.97;5026296;27;103301;-71
2022/05/17 09:37:05;;;;;;;3.88;3.00;;;;;;;27.61;45.49;99192.09;5024670;27;102996;-69
2022/05/17 09:39:33;;;;;;;4.95;2.90;;;;;;;28.90;43.51;99187.72;5027967;27;102792;-71
2022/05/17 09:42:04;;;;;;;4.88;2.88;;;;;;;28.56;42.32;99191.56;5025029;27;103287;-71
2022/05/17 09:44:42;;;;;;;4.18;3.17;;;;;;;26.97;43.93;99190.88;5023408;27;104076;-71
2022/05/17 09:47:24;;;;;;;5.65;3.22;;;;;;;26.76;45.86;99202.66;5004997;27;102920;-71
2022/05/17 09:52:44;;;;;;;6.13;3.22;;;;;;;28.41;43.72;99198.31;5028390;27;103600;-71
2022/05/17 09:55:21;;;;;;;5.93;3.10;;;;;;;26.92;46.40;99196.09;5030616;27;103210;-71
2022/05/17 09:58:00;;;;;;;4.28;2.83;;;;;;;28.70;42.64;99187.78;5021097;27;103076;-71
2022/05/17 10:00:33;;;;;;;3.60;2.60;;;;;;;29.54;43.04;99186.72;5028949;27;104113;-71
2022/05/17 10:03:04;;;;;;;5.93;2.95;;;;;;;29.63;41.54;99180.78;5028068;27;104675;-71
2022/05/17 10:05:48;;;;;;;3.40;2.47;;;;;;;28.77;41.72;99181.50;5024266;27;103450;-71
2022/05/17 10:08:34;;;;;;;3.60;2.40;;;;;;;28.11;42.78;99193.34;5019893;27;102889;-71
2022/05/17 10:11:14;;;;;;;7.03;2.55;;;;;;;27.49;39.81;99190.19;5018343;27;104123;-72
2022/05/17 10:13:57;;;;;;;5.03;2.85;;;;;;;27.21;41.92;99184.06;5028720;27;104656;-71
2022/05/17 10:16:31;;;;;;;4.00;2.40;;;;;;;28.59;39.84;99176.72;5007654;27;103263;-72
2022/05/17 10:19:05;;;;;;;4.67;1.90;;;;;;;28.96;37.50;99186.00;5014480;27;102909;-78
2022/05/17 10:21:39;;;;;;;4.85;2.83;;;;;;;26.83;40.35;99181.88;5029741;27;102967;-76
2022/05/17 10:24:16;;;;;;;5.43;3.35;;;;;;;26.44;42.08;99184.38;5030225;27;103429;-79
2022/05/17 10:26:49;;;;;;;4.97;3.13;;;;;;;27.38;42.02;99172.63;5034621;27;103238;-79
2022/05/17 10:29:27;;;;;;;3.67;2.80;;;;;;;28.23;41.29;99169.09;5027342;27;102948;-79
2022/05/17 10:32:02;;;;;;;5.45;3.30;;;;;;;28.03;41.65;99171.00;5024524;27;102957;-77
2022/05/17 10:34:56;;;;;;;3.58;2.40;;;;;;;28.61;42.73;99170.00;5033160;27;104604;-77
2022/05/17 10:37:33;;;;;;;3.95;2.58;;;;;;;29.44;38.24;99156.44;5016823;27;104387;-77
2022/05/17 10:40:06;;;;;;;3.03;2.40;;;;;;;29.93;38.98;99156.47;5027675;27;102636;-77
2022/05/17 10:42:37;;;;;;;3.22;2.50;;;;;;;29.69;36.80;99154.56;5004920;27;104148;-79
2022/05/17 10:45:11;;;;;;;4.95;2.83;;;;;;;29.47;39.62;99156.00;5027878;27;103973;-79
2022/05/17 10:47:50;;;;;;;4.15;3.35;;;;;;;29.28;41.84;99158.63;5002329;27;104162;-79
2022/05/17 10:50:32;;;;;;;4.75;2.72;;;;;;;28.62;42.52;99159.97;5026993;27;102896;-79
2022/05/17 10:53:13;;;;;;;3.47;2.50;;;;;;;29.17;41.28;99156.56;5014647;27;104783;-79
2022/05/17 10:55:48;;;;;;;4.00;2.40;;;;;;;29.74;38.42;99146.56;5007149;27;103257;-79
2022/05/17 10:58:25;;;;;;;4.63;3.03;;;;;;;28.21;39.84;99148.63;5012264;27;104166;-76
2022/05/17 11:01:02;;;;;;;3.80;3.00;;;;;;;29.29;38.61;99143.97;5029256;27;102953;-77
2022/05/17 11:03:55;;;;;;;5.15;2.97;;;;;;;28.49;39.87;99141.81;5029405;27;103085;-77
2022/05/17 11:06:28;;;;;;;4.95;3.50;;;;;;;28.43;40.98;99139.16;5026157;27;103269;-79
2022/05/17 11:09:06;;;;;;;4.73;3.40;;;;;;;28.79;43.60;99135.88;5027567;27;103213;-80
2022/05/17 11:11:50;;;;;;;4.13;3.10;;;;;;;28.79;43.34;99131.28;5026462;27;102938;-79
2022/05/17 11:14:24;;;;;;;3.67;3.10;;;;;;;28.15;44.59;99129.38;5028507;27;104005;-79
2022/05/17 11:17:00;;;;;;;4.13;3.10;;;;;;;28.52;44.21;99127.00;5030521;27;104126;-80
2022/05/17 11:19:37;;;;;;;6.20;3.60;;;;;;;29.16;39.89;99137.78;5009985;27;104218;-79
2022/05/17 11:22:16;;;;;;;5.93;3.45;;;;;;;29.75;39.39;99127.28;5015610;27;102680;-80
2022/05/17 11:25:19;;;;;;;5.80;3.35;;;;;;;29.60;40.94;99117.78;5024257;27;102946;-79
2022/05/17 11:28:09;;;;;;;3.28;2.40;;;;;;;30.73;40.47;99130.03;5032340;27;104185;-79
2022/05/17 11:30:48;;;;;;;5.13;2.72;;;;;;;28.78;42.90;99118.72;5009637;27;104104;-79
2022/05/17 11:33:33;;;;;;;5.32;3.83;;;;;;;28.01;43.21;99126.91;5006338;27;103466;-79
2022/05/17 11:36:08;;;;;;;6.28;3.47;;;;;;;28.51;43.35;99117.16;5034461;27;104046;-78
2022/05/17 11:38:46;;;;;;;4.95;3.33;;;;;;;27.60;45.28;99124.44;5020539;27;103522;-78
2022/05/17 11:41:23;;;;;;;6.15;3.70;;;;;;;29.37;40.81;99112.09;5008923;27;104143;-79
2022/05/17 11:44:07;;;;;;;5.63;3.00;;;;;;;29.86;39.77;99107.53;5019379;27;102633;-78
2022/05/17 11:46:55;;;;;;;4.10;3.22;;;;;;;27.44;44.46;99111.28;5030364;27;104913;-77
2022/05/17 11:49:45;;;;;;;5.75;3.42;;;;;;;26.77;44.87;99106.75;5046151;27;104343;-77
2022/05/17 11:52:25;;;;;;;6.73;3.90;;;;;;;26.48;45.31;99107.91;5030360;27;103232;-78
2022/05/17 11:54:54;;;;;;;5.35;3.10;;;;;;;26.51;43.72;99106.66;5021778;27;102942;-78
2022/05/17 11:58:00;;;;;;;6.80;3.07;;;;;;;27.37;43.74;99107.72;5002959;27;104503;-77
2022/05/17 12:00:46;;;;;;;6.40;2.70;;;;;;;28.64;40.70;99098.09;5008708;27;104516;-77
2022/05/17 12:03:47;;;;;;;5.10;3.00;;;;;;;26.91;42.87;99097.66;5019201;27;102974;-77
2022/05/17 12:07:19;;;;;;;5.20;2.80;;;;;;;27.75;41.65;99095.22;5003224;27;103362;-77
2022/05/17 12:09:50;;;;;;;4.37;2.37;;;;;;;27.98;40.20;99090.16;4994853;27;103069;-77
2022/05/17 12:12:42;;;;;;;5.53;2.55;;;;;;;27.59;42.31;99087.50;5015709;27;104638;-76
2022/05/17 12:15:34;;;;;;;5.25;2.55;;;;;;;29.41;39.77;99075.25;4991421;27;103991;-76
2022/05/17 12:18:12;;;;;;;3.33;1.80;;;;;;;30.27;38.61;99079.59;4995768;28;102814;-76
2022/05/17 12:21:02;;;;;;;4.80;1.90;;;;;;;27.34;39.10;99078.31;4997506;28;102897;-76
2022/05/17 12:23:36;;;;;;;3.00;1.80;;;;;;;29.09;38.45;99072.53;5000246;28;104492;-77
2022/05/17 12:26:08;;;;;;;4.60;2.30;;;;;;;28.02;39.10;99076.97;4998702;28;103366;-76
2022/05/17 12:28:46;;;;;;;3.27;1.90;;;;;;;26.90;39.63;99084.28;4997935;28;103245;-75
2022/05/17 12:31:19;;;;;;;2.40;1.57;;;;;;;27.83;39.53;99081.41;4998399;28;102822;-77
2022/05/17 12:33:49;;;;;;;3.83;1.70;;;;;;;28.57;37.67;99064.69;5008541;28;104071;-77
2022/05/17 12:36:20;;;;;;;4.28;1.60;;;;;;;27.43;39.46;99077.06;5000535;27;103485;-77
2022/05/17 12:44:35;;;;;;;2.92;1.50;;;;;;;29.44;37.35;99058.47;5002889;28;103974;-75
2022/05/17 12:47:08;;;;;;;4.55;1.83;;;;;;;28.15;38.21;99061.50;5005802;28;103185;-76